createdAt,value
2018-05-23T00:00:02.693Z,0
2018-05-23T00:05:03.557Z,0
2018-05-23T00:10:03.215Z,0
2018-05-23T00:15:02.782Z,0
2018-05-23T00:20:03.352Z,0
2018-05-23T00:25:02.908Z,0
2018-05-23T00:30:03.455Z,0
2018-05-23T00:35:02.969Z,0
2018-05-23T00:40:03.572Z,0
2018-05-23T00:45:03.119Z,0
2018-05-23T00:50:02.724Z,0
2018-05-23T00:55:03.265Z,0
2018-05-23T01:00:02.819Z,0
2018-05-23T01:05:03.421Z,0
2018-05-23T01:10:02.985Z,0
2018-05-23T01:15:03.505Z,0
2018-05-23T01:20:03.082Z,0
2018-05-23T01:25:02.752Z,0
2018-05-23T01:30:03.369Z,0
2018-05-23T01:35:02.968Z,0
2018-05-23T01:40:03.585Z,0
2018-05-23T01:45:03.197Z,0
2018-05-23T01:50:02.817Z,0
2018-05-23T01:55:03.376Z,0
2018-05-23T02:00:02.967Z,0
2018-05-23T02:05:03.572Z,0
2018-05-23T02:10:03.267Z,0
2018-05-23T02:15:02.924Z,0
2018-05-23T02:20:03.556Z,0
2018-05-23T02:25:03.198Z,0
2018-05-23T02:30:02.864Z,0
2018-05-23T02:35:03.476Z,0
2018-05-23T02:40:03.113Z,0
2018-05-23T02:45:02.687Z,0
2018-05-23T02:50:03.294Z,0
2018-05-23T02:55:02.912Z,0
2018-05-23T03:00:03.779Z,0
2018-05-23T03:05:03.552Z,0
2018-05-23T03:10:03.245Z,0
2018-05-23T03:15:02.822Z,0
2018-05-23T03:20:03.346Z,0
2018-05-23T03:25:02.933Z,0
2018-05-23T03:30:02.853Z,0
2018-05-23T03:35:03.490Z,0
2018-05-23T03:40:03.135Z,0
2018-05-23T03:45:02.804Z,0
2018-05-23T03:50:03.383Z,0
2018-05-23T03:55:02.972Z,0
2018-05-23T04:00:02.608Z,0
2018-05-23T04:05:03.249Z,0
2018-05-23T04:10:02.883Z,0
2018-05-23T04:15:03.689Z,0
2018-05-23T04:20:03.023Z,0
2018-05-23T04:25:02.623Z,0
2018-05-23T04:30:03.114Z,0
2018-05-23T04:35:02.755Z,0
2018-05-23T04:40:03.430Z,0
2018-05-23T04:45:03.025Z,0
2018-05-23T04:50:02.692Z,0
2018-05-23T04:55:03.306Z,0
2018-05-23T05:00:02.914Z,0
2018-05-23T05:05:03.819Z,0
2018-05-23T05:10:03.814Z,0
2018-05-23T05:15:03.526Z,0
2018-05-23T05:20:03.108Z,0
2018-05-23T05:25:03.143Z,0
2018-05-23T05:30:03.055Z,0
2018-05-23T05:35:02.713Z,0
2018-05-23T05:40:03.383Z,0
2018-05-23T05:45:03.008Z,0
2018-05-23T05:50:03.581Z,0
2018-05-23T05:55:03.238Z,0
2018-05-23T06:00:02.852Z,0
2018-05-23T06:05:03.475Z,0
2018-05-23T06:10:03.122Z,0
2018-05-23T06:15:02.791Z,0
2018-05-23T06:20:03.353Z,0
2018-05-23T06:25:03.056Z,0
2018-05-23T06:30:02.677Z,0
2018-05-23T06:35:03.299Z,0
2018-05-23T06:40:02.946Z,0
2018-05-23T06:45:03.561Z,0
2018-05-23T06:50:03.488Z,0
2018-05-23T06:55:03.255Z,0
2018-05-23T07:00:02.868Z,0
2018-05-23T07:05:03.446Z,0
2018-05-23T07:10:03.050Z,0
2018-05-23T07:15:02.721Z,0
2018-05-23T07:20:03.316Z,0
2018-05-23T07:25:02.896Z,0
2018-05-23T07:30:03.526Z,0
2018-05-23T07:35:03.102Z,0
2018-05-23T07:40:02.720Z,0
2018-05-23T07:45:03.337Z,0
2018-05-23T07:50:02.981Z,0
2018-05-23T07:55:02.727Z,0
2018-05-23T08:00:03.287Z,0
2018-05-23T08:05:02.978Z,0
2018-05-23T08:10:02.610Z,0
2018-05-23T08:15:03.171Z,0
2018-05-23T08:20:02.769Z,0
2018-05-23T08:25:03.404Z,0
2018-05-23T08:30:03.012Z,0
2018-05-23T08:35:03.616Z,0
2018-05-23T08:40:03.259Z,3
2018-05-23T08:45:02.843Z,3
2018-05-23T08:50:03.476Z,1
2018-05-23T08:55:03.033Z,0
2018-05-23T09:00:02.664Z,0
2018-05-23T09:05:03.771Z,1
2018-05-23T09:10:03.545Z,0
2018-05-23T09:15:03.175Z,1
2018-05-23T09:20:02.786Z,0
2018-05-23T09:25:03.365Z,2
2018-05-23T09:30:02.919Z,2
2018-05-23T09:35:03.544Z,2
2018-05-23T09:40:03.192Z,0
2018-05-23T09:45:03.139Z,0
2018-05-23T09:50:02.835Z,3
2018-05-23T09:55:03.590Z,0
2018-05-23T10:00:03.382Z,1
2018-05-23T10:05:03.059Z,2
2018-05-23T10:10:02.705Z,3
2018-05-23T10:15:03.390Z,0
2018-05-23T10:20:02.947Z,0
2018-05-23T10:25:03.560Z,0
2018-05-23T10:30:03.422Z,0
2018-05-23T10:35:03.079Z,0
2018-05-23T10:40:02.763Z,2
2018-05-23T10:45:03.405Z,0
2018-05-23T10:50:02.964Z,0
2018-05-23T10:55:03.593Z,1
2018-05-23T11:00:03.457Z,3
2018-05-23T11:05:03.195Z,0
2018-05-23T11:10:02.915Z,0
2018-05-23T11:15:03.987Z,0
2018-05-23T11:20:02.980Z,0
2018-05-23T11:25:02.636Z,2
2018-05-23T11:30:03.265Z,3
2018-05-23T11:35:02.849Z,0
2018-05-23T11:40:03.532Z,0
2018-05-23T11:45:03.141Z,0
2018-05-23T11:50:02.791Z,0
2018-05-23T11:55:03.375Z,3
2018-05-23T12:00:02.994Z,0
2018-05-23T12:05:03.629Z,2
2018-05-23T12:10:03.325Z,2
2018-05-23T12:15:03.021Z,2
2018-05-23T12:20:02.626Z,3
2018-05-23T12:25:03.209Z,1
2018-05-23T12:30:02.778Z,1
2018-05-23T12:35:03.442Z,4
2018-05-23T12:40:03.093Z,2
2018-05-23T12:45:02.703Z,6
2018-05-23T12:50:03.286Z,3
2018-05-23T12:55:02.916Z,4
2018-05-23T13:00:02.654Z,4
2018-05-23T13:05:03.344Z,2
2018-05-23T13:10:02.949Z,5
2018-05-23T13:15:03.566Z,4
2018-05-23T13:20:03.103Z,4
2018-05-23T13:25:02.764Z,1
2018-05-23T13:30:03.395Z,5
2018-05-23T13:35:02.943Z,4
2018-05-23T13:40:02.799Z,7
2018-05-23T13:45:03.487Z,6
2018-05-23T13:50:03.054Z,4
2018-05-23T13:55:03.047Z,5
2018-05-23T14:00:02.848Z,3
2018-05-23T14:05:03.458Z,4
2018-05-23T14:10:03.163Z,2
2018-05-23T14:15:02.701Z,4
2018-05-23T14:20:03.373Z,5
2018-05-23T14:25:02.976Z,4
2018-05-23T14:30:03.584Z,5
2018-05-23T14:35:03.234Z,5
2018-05-23T14:40:02.935Z,4
2018-05-23T14:45:03.470Z,2
2018-05-23T14:50:03.299Z,2
2018-05-23T14:55:03.068Z,5
2018-05-23T15:00:02.963Z,6
2018-05-23T15:05:03.646Z,3
2018-05-23T15:10:03.339Z,2
2018-05-23T15:15:02.964Z,2
2018-05-23T15:20:04.027Z,6
2018-05-23T15:25:02.829Z,3
2018-05-23T15:30:03.456Z,2
2018-05-23T15:35:03.313Z,3
2018-05-23T15:40:03.067Z,4
2018-05-23T15:45:02.754Z,6
2018-05-23T15:50:03.352Z,5
2018-05-23T15:55:02.959Z,5
2018-05-23T16:00:03.600Z,7
2018-05-23T16:05:03.223Z,5
2018-05-23T16:10:02.891Z,6
2018-05-23T16:15:03.514Z,5
2018-05-23T16:20:03.096Z,3
2018-05-23T16:25:02.691Z,5
2018-05-23T16:30:03.255Z,4
2018-05-23T16:35:02.881Z,5
2018-05-23T16:40:08.553Z,5
2018-05-23T16:45:06.056Z,4
2018-05-23T17:00:02.689Z,3
2018-05-23T17:05:03.120Z,7
2018-05-23T17:10:02.769Z,5
2018-05-23T17:15:03.418Z,3
2018-05-23T17:20:03.029Z,4
2018-05-23T17:25:03.619Z,1
2018-05-23T17:30:03.229Z,5
2018-05-23T17:35:02.814Z,4
2018-05-23T17:40:03.480Z,3
2018-05-23T17:45:03.124Z,3
2018-05-23T17:50:02.706Z,2
2018-05-23T17:55:03.396Z,5
2018-05-23T18:00:02.977Z,3
2018-05-23T18:05:02.760Z,5
2018-05-23T18:10:03.330Z,2
2018-05-23T18:15:02.964Z,3
2018-05-23T18:20:02.652Z,4
2018-05-23T18:25:03.205Z,2
2018-05-23T18:30:02.728Z,2
2018-05-23T18:35:03.349Z,0
2018-05-23T18:40:03.061Z,0
2018-05-23T18:45:03.600Z,1
2018-05-23T18:50:03.226Z,0
2018-05-23T18:55:02.794Z,0
2018-05-23T19:00:03.441Z,0
2018-05-23T19:05:03.552Z,0
2018-05-23T19:10:03.325Z,0
2018-05-23T19:15:02.956Z,0
2018-05-23T19:20:03.776Z,0
2018-05-23T19:25:03.562Z,0
2018-05-23T19:30:03.260Z,0
2018-05-23T19:35:02.856Z,0
2018-05-23T19:40:03.528Z,0
2018-05-23T19:45:03.051Z,0
2018-05-23T19:50:02.635Z,0
2018-05-23T19:55:03.239Z,0
2018-05-23T20:00:02.845Z,0
2018-05-23T20:05:03.491Z,0
2018-05-23T20:10:03.162Z,0
2018-05-23T20:15:02.841Z,0
2018-05-23T20:20:03.459Z,0
2018-05-23T20:25:03.003Z,0
2018-05-23T20:30:02.636Z,0
2018-05-23T20:35:03.211Z,0
2018-05-23T20:40:02.903Z,0
2018-05-23T20:45:03.513Z,0
2018-05-23T20:50:03.097Z,0
2018-05-23T20:55:02.801Z,0
2018-05-23T21:00:03.380Z,0
2018-05-23T21:05:03.347Z,0
2018-05-23T21:10:03.146Z,0
2018-05-23T21:15:02.786Z,0
2018-05-23T21:20:03.421Z,0
2018-05-23T21:25:03.015Z,0
2018-05-23T21:30:02.680Z,0
2018-05-23T21:35:03.310Z,0
2018-05-23T21:40:02.974Z,0
2018-05-23T21:45:03.708Z,0
2018-05-23T21:50:03.238Z,0
2018-05-23T21:55:02.862Z,0
2018-05-23T22:00:03.540Z,0
2018-05-23T22:05:02.613Z,0
2018-05-23T22:10:03.224Z,0
2018-05-23T22:15:02.833Z,0
2018-05-23T22:20:03.555Z,0
2018-05-23T22:25:03.296Z,0
2018-05-23T22:30:02.893Z,0
2018-05-23T22:35:03.571Z,0
2018-05-23T22:40:03.232Z,0
2018-05-23T22:45:02.892Z,0
2018-05-23T22:50:03.619Z,0
2018-05-23T22:55:03.129Z,0
2018-05-23T23:00:02.731Z,0
2018-05-23T23:05:03.193Z,0
2018-05-23T23:10:02.875Z,0
2018-05-23T23:15:03.434Z,0
2018-05-23T23:20:02.981Z,0
2018-05-23T23:25:03.567Z,0
2018-05-23T23:30:03.165Z,0
2018-05-23T23:35:02.841Z,0
2018-05-23T23:40:03.473Z,0
2018-05-23T23:45:03.046Z,0
2018-05-23T23:50:02.632Z,0
2018-05-23T23:55:03.263Z,0
